Medicine Hat Airport
CYXH : now visible

Airfield :











YOU CAN JOIN US ON...

 
LOGIN :

Register | Disclaimer

   EN    FR    IT 

 









Legend :    VFR   Marginal VFR   IFR   Intensive IFR   Very Intensive IFR
Visi :
Ceiling :
>= 8 km
>= 3000ft
5 to 8 km
1000 to 3000 ft
1500m to 5 km
500 to 1000 ft
800 to 1500m
200 to 500 ft
< 800m
< 200 ft
Symbols :   Thunderstorms  Fog  Heavy snow  Heavy precipitations  Wind > 20 kt






- Airport Elevation : 2352 ft
- IATA code : YXH


CYXH - Medicine Hat

CURRENT METAR :
  • 290200Z 10007KT 15SM SCT270 01/M01 A3000 RMK CI3 SLP186

EXPIRED METARs :
  • 290100Z 06003KT 15SM FEW100 SCT270 03/M00 A3003 RMK AC1CI3 SLP192
  • 290000Z 07004KT 30SM FEW055 FEW100 BKN270 04/M00 A3003 RMK SC1AC1CI3 SLP192

TAF TAF CYXH
Valid from the 29 at 00:00 until the 29 at 12:00 UTC


282338Z 2900/2912 VRB03KT P6SM SCT050 BKN080
FM290600 19008KT P6SM BKN080 OVC160 RMK NXT FCST BY 290600Z
CZEG FIR / North America



MET'MAP, your aeronautical weather chart ! - Copyright ORBIFLY December 2007 - Disclaimer

ORBIFLY MET'MAP TEAM :

Programming & Development : Alexandra Zaïnal
Concept & original design : Baudouin d'Aumeries
Assistance for programming : Marc-Olivier Méhu
Technical & hardware support : Manuel Goepfert

Contact : metmap@orbifly.com




SOURCES & CREDITS :

   NOAA       Earth
Advisory